sensor_id;sensor_type;location;lat;lon;timestamp;P1;durP1;ratioP1;P2;durP2;ratioP2
70205;SDS011;57593;55.896;37.396;2022-11-20T00:00:01;24.45;;;14.25;;
70205;SDS011;57593;55.896;37.396;2022-11-20T00:00:37;23.94;;;14.10;;
70205;SDS011;57593;55.896;37.396;2022-11-20T00:01:12;23.08;;;13.70;;
70205;SDS011;57593;55.896;37.396;2022-11-20T00:01:47;24.30;;;14.22;;
70205;SDS011;57593;55.896;37.396;2022-11-20T00:02:17;21.40;;;13.57;;
70205;SDS011;57593;55.896;37.396;2022-11-20T00:02:48;23.83;;;14.00;;
70205;SDS011;57593;55.896;37.396;2022-11-20T00:03:19;26.27;;;15.02;;
70205;SDS011;57593;55.896;37.396;2022-11-20T00:03:50;25.38;;;15.15;;
70205;SDS011;57593;55.896;37.396;2022-11-20T00:04:22;24.40;;;13.14;;
70205;SDS011;57593;55.896;37.396;2022-11-20T00:04:53;22.90;;;13.70;;
70205;SDS011;57593;55.896;37.396;2022-11-20T00:05:24;23.70;;;13.45;;
70205;SDS011;57593;55.896;37.396;2022-11-20T00:05:59;25.58;;;13.20;;
70205;SDS011;57593;55.896;37.396;2022-11-20T00:06:30;25.16;;;14.42;;
70205;SDS011;57593;55.896;37.396;2022-11-20T00:07:01;24.92;;;14.48;;
70205;SDS011;57593;55.896;37.396;2022-11-20T00:07:31;27.80;;;14.98;;
70205;SDS011;57593;55.896;37.396;2022-11-20T00:08:02;26.10;;;13.95;;
70205;SDS011;57593;55.896;37.396;2022-11-20T00:08:33;22.98;;;13.75;;
70205;SDS011;57593;55.896;37.396;2022-11-20T00:09:03;24.92;;;14.23;;
70205;SDS011;57593;55.896;37.396;2022-11-20T00:09:35;24.80;;;15.40;;
70205;SDS011;57593;55.896;37.396;2022-11-20T00:10:06;27.73;;;14.90;;
70205;SDS011;57593;55.896;37.396;2022-11-20T00:10:37;26.45;;;13.90;;
70205;SDS011;57593;55.896;37.396;2022-11-20T00:11:10;26.50;;;14.52;;
70205;SDS011;57593;55.896;37.396;2022-11-20T00:11:46;28.06;;;14.76;;
70205;SDS011;57593;55.896;37.396;2022-11-20T00:12:16;27.35;;;15.35;;
70205;SDS011;57593;55.896;37.396;2022-11-20T00:12:47;24.85;;;13.95;;
70205;SDS011;57593;55.896;37.396;2022-11-20T00:13:18;23.52;;;14.15;;
70205;SDS011;57593;55.896;37.396;2022-11-20T00:13:50;25.55;;;13.90;;
70205;SDS011;57593;55.896;37.396;2022-11-20T00:14:22;28.20;;;14.84;;
70205;SDS011;57593;55.896;37.396;2022-11-20T00:14:52;24.73;;;13.93;;
70205;SDS011;57593;55.896;37.396;2022-11-20T00:15:23;25.58;;;14.18;;
70205;SDS011;57593;55.896;37.396;2022-11-20T00:15:57;21.94;;;12.86;;
70205;SDS011;57593;55.896;37.396;2022-11-20T00:16:30;23.88;;;13.64;;
70205;SDS011;57593;55.896;37.396;2022-11-20T00:17:02;22.68;;;12.58;;
70205;SDS011;57593;55.896;37.396;2022-11-20T00:17:33;24.75;;;13.35;;
70205;SDS011;57593;55.896;37.396;2022-11-20T00:18:03;22.73;;;13.50;;
70205;SDS011;57593;55.896;37.396;2022-11-20T00:18:34;24.17;;;14.32;;
70205;SDS011;57593;55.896;37.396;2022-11-20T00:19:05;23.76;;;14.34;;
70205;SDS011;57593;55.896;37.396;2022-11-20T00:19:36;23.60;;;13.63;;
70205;SDS011;57593;55.896;37.396;2022-11-20T00:20:07;24.50;;;13.57;;
70205;SDS011;57593;55.896;37.396;2022-11-20T00:20:37;28.50;;;15.28;;
70205;SDS011;57593;55.896;37.396;2022-11-20T00:21:12;23.15;;;13.32;;
70205;SDS011;57593;55.896;37.396;2022-11-20T00:21:44;25.54;;;14.02;;
70205;SDS011;57593;55.896;37.396;2022-11-20T00:22:15;25.65;;;13.68;;
70205;SDS011;57593;55.896;37.396;2022-11-20T00:22:45;27.98;;;14.48;;
70205;SDS011;57593;55.896;37.396;2022-11-20T00:23:16;24.45;;;14.32;;
70205;SDS011;57593;55.896;37.396;2022-11-20T00:23:47;26.38;;;13.80;;
70205;SDS011;57593;55.896;37.396;2022-11-20T00:24:18;23.66;;;14.48;;
70205;SDS011;57593;55.896;37.396;2022-11-20T00:24:49;21.98;;;13.25;;
70205;SDS011;57593;55.896;37.396;2022-11-20T00:25:19;22.90;;;13.70;;
70205;SDS011;57593;55.896;37.396;2022-11-20T00:25:50;23.88;;;14.68;;
70205;SDS011;57593;55.896;37.396;2022-11-20T00:26:21;26.63;;;13.45;;
70205;SDS011;57593;55.896;37.396;2022-11-20T00:26:53;25.96;;;14.18;;
70205;SDS011;57593;55.896;37.396;2022-11-20T00:27:24;27.60;;;13.90;;
70205;SDS011;57593;55.896;37.396;2022-11-20T00:27:54;25.88;;;14.05;;
70205;SDS011;57593;55.896;37.396;2022-11-20T00:28:25;24.00;;;14.05;;
70205;SDS011;57593;55.896;37.396;2022-11-20T00:28:56;23.05;;;13.95;;
70205;SDS011;57593;55.896;37.396;2022-11-20T00:29:28;23.64;;;13.96;;
70205;SDS011;57593;55.896;37.396;2022-11-20T00:29:59;27.40;;;14.15;;
70205;SDS011;57593;55.896;37.396;2022-11-20T00:30:30;23.85;;;13.93;;
70205;SDS011;57593;55.896;37.396;2022-11-20T00:31:01;24.25;;;13.55;;
70205;SDS011;57593;55.896;37.396;2022-11-20T00:31:34;22.50;;;13.74;;
70205;SDS011;57593;55.896;37.396;2022-11-20T00:32:05;29.06;;;15.24;;
70205;SDS011;57593;55.896;37.396;2022-11-20T00:32:36;25.92;;;14.32;;
70205;SDS011;57593;55.896;37.396;2022-11-20T00:33:06;23.58;;;14.25;;
70205;SDS011;57593;55.896;37.396;2022-11-20T00:33:37;25.42;;;13.52;;
70205;SDS011;57593;55.896;37.396;2022-11-20T00:34:09;26.38;;;14.73;;
70205;SDS011;57593;55.896;37.396;2022-11-20T00:34:40;27.32;;;13.68;;
70205;SDS011;57593;55.896;37.396;2022-11-20T00:35:10;24.10;;;13.13;;
70205;SDS011;57593;55.896;37.396;2022-11-20T00:35:41;26.45;;;14.70;;
70205;SDS011;57593;55.896;37.396;2022-11-20T00:36:13;22.55;;;13.23;;
70205;SDS011;57593;55.896;37.396;2022-11-20T00:36:45;25.68;;;13.34;;
70205;SDS011;57593;55.896;37.396;2022-11-20T00:37:15;23.88;;;13.93;;
70205;SDS011;57593;55.896;37.396;2022-11-20T00:37:46;23.67;;;13.27;;
70205;SDS011;57593;55.896;37.396;2022-11-20T00:38:17;25.48;;;14.07;;
70205;SDS011;57593;55.896;37.396;2022-11-20T00:38:50;23.50;;;13.95;;
70205;SDS011;57593;55.896;37.396;2022-11-20T00:39:22;25.54;;;13.66;;
70205;SDS011;57593;55.896;37.396;2022-11-20T00:39:53;24.42;;;14.43;;
70205;SDS011;57593;55.896;37.396;2022-11-20T00:40:24;23.20;;;13.65;;
70205;SDS011;57593;55.896;37.396;2022-11-20T00:40:55;25.90;;;14.35;;
70205;SDS011;57593;55.896;37.396;2022-11-20T00:41:29;22.24;;;12.80;;
70205;SDS011;57593;55.896;37.396;2022-11-20T00:42:00;24.35;;;14.32;;
70205;SDS011;57593;55.896;37.396;2022-11-20T00:42:30;21.00;;;13.25;;
70205;SDS011;57593;55.896;37.396;2022-11-20T00:43:03;21.90;;;13.63;;
70205;SDS011;57593;55.896;37.396;2022-11-20T00:43:33;21.77;;;14.23;;
70205;SDS011;57593;55.896;37.396;2022-11-20T00:44:04;23.54;;;14.14;;
70205;SDS011;57593;55.896;37.396;2022-11-20T00:44:35;25.60;;;13.50;;
70205;SDS011;57593;55.896;37.396;2022-11-20T00:45:06;22.73;;;14.02;;
70205;SDS011;57593;55.896;37.396;2022-11-20T00:45:37;21.20;;;12.60;;
70205;SDS011;57593;55.896;37.396;2022-11-20T00:46:13;22.13;;;12.98;;
70205;SDS011;57593;55.896;37.396;2022-11-20T00:46:46;23.76;;;13.86;;
70205;SDS011;57593;55.896;37.396;2022-11-20T00:47:16;22.20;;;13.18;;
70205;SDS011;57593;55.896;37.396;2022-11-20T00:47:47;21.42;;;12.25;;
70205;SDS011;57593;55.896;37.396;2022-11-20T00:48:17;26.80;;;13.95;;
70205;SDS011;57593;55.896;37.396;2022-11-20T00:48:48;22.50;;;13.18;;
70205;SDS011;57593;55.896;37.396;2022-11-20T00:49:19;22.05;;;12.85;;
70205;SDS011;57593;55.896;37.396;2022-11-20T00:49:50;22.25;;;12.75;;
70205;SDS011;57593;55.896;37.396;2022-11-20T00:50:20;23.92;;;13.90;;
70205;SDS011;57593;55.896;37.396;2022-11-20T00:50:51;21.42;;;13.15;;
70205;SDS011;57593;55.896;37.396;2022-11-20T00:51:23;21.77;;;12.68;;
70205;SDS011;57593;55.896;37.396;2022-11-20T00:51:55;19.80;;;12.34;;
70205;SDS011;57593;55.896;37.396;2022-11-20T00:52:25;20.98;;;11.90;;
70205;SDS011;57593;55.896;37.396;2022-11-20T00:52:56;25.02;;;13.40;;
70205;SDS011;57593;55.896;37.396;2022-11-20T00:53:27;21.73;;;12.48;;
70205;SDS011;57593;55.896;37.396;2022-11-20T00:53:57;21.77;;;13.18;;
70205;SDS011;57593;55.896;37.396;2022-11-20T00:54:29;22.36;;;13.34;;
70205;SDS011;57593;55.896;37.396;2022-11-20T00:55:00;21.90;;;12.25;;
70205;SDS011;57593;55.896;37.396;2022-11-20T00:55:31;20.73;;;12.05;;
70205;SDS011;57593;55.896;37.396;2022-11-20T00:56:03;19.52;;;12.05;;
70205;SDS011;57593;55.896;37.396;2022-11-20T00:56:37;22.14;;;12.12;;
70205;SDS011;57593;55.896;37.396;2022-11-20T00:57:08;20.45;;;12.60;;
70205;SDS011;57593;55.896;37.396;2022-11-20T00:57:38;20.73;;;11.40;;
70205;SDS011;57593;55.896;37.396;2022-11-20T00:58:09;20.77;;;12.48;;
70205;SDS011;57593;55.896;37.396;2022-11-20T00:58:40;21.20;;;12.38;;
70205;SDS011;57593;55.896;37.396;2022-11-20T00:59:13;23.22;;;12.84;;
70205;SDS011;57593;55.896;37.396;2022-11-20T00:59:43;19.92;;;12.55;;
70205;SDS011;57593;55.896;37.396;2022-11-20T01:00:14;22.25;;;12.50;;
70205;SDS011;57593;55.896;37.396;2022-11-20T01:00:45;18.62;;;12.58;;
70205;SDS011;57593;55.896;37.396;2022-11-20T01:01:17;20.77;;;12.38;;
70205;SDS011;57593;55.896;37.396;2022-11-20T01:01:50;22.10;;;11.88;;
70205;SDS011;57593;55.896;37.396;2022-11-20T01:02:20;21.35;;;13.02;;
70205;SDS011;57593;55.896;37.396;2022-11-20T01:02:51;19.95;;;12.75;;
70205;SDS011;57593;55.896;37.396;2022-11-20T01:03:21;19.60;;;11.73;;
70205;SDS011;57593;55.896;37.396;2022-11-20T01:03:53;22.23;;;11.82;;
70205;SDS011;57593;55.896;37.396;2022-11-20T01:04:26;23.82;;;12.00;;
70205;SDS011;57593;55.896;37.396;2022-11-20T01:04:57;22.58;;;12.00;;
70205;SDS011;57593;55.896;37.396;2022-11-20T01:05:27;19.50;;;12.07;;
70205;SDS011;57593;55.896;37.396;2022-11-20T01:06:02;19.42;;;12.32;;
70205;SDS011;57593;55.896;37.396;2022-11-20T01:06:36;21.10;;;12.20;;
70205;SDS011;57593;55.896;37.396;2022-11-20T01:07:08;21.80;;;12.38;;
70205;SDS011;57593;55.896;37.396;2022-11-20T01:07:38;20.13;;;12.35;;
70205;SDS011;57593;55.896;37.396;2022-11-20T01:08:09;23.52;;;12.38;;
70205;SDS011;57593;55.896;37.396;2022-11-20T01:08:41;20.94;;;11.96;;
70205;SDS011;57593;55.896;37.396;2022-11-20T01:09:13;18.63;;;10.68;;
70205;SDS011;57593;55.896;37.396;2022-11-20T01:09:44;19.80;;;12.24;;
70205;SDS011;57593;55.896;37.396;2022-11-20T01:10:14;21.92;;;12.63;;
70205;SDS011;57593;55.896;37.396;2022-11-20T01:10:45;20.33;;;11.45;;
70205;SDS011;57593;55.896;37.396;2022-11-20T01:11:17;18.65;;;11.50;;
70205;SDS011;57593;55.896;37.396;2022-11-20T01:11:49;21.36;;;12.30;;
70205;SDS011;57593;55.896;37.396;2022-11-20T01:12:19;18.02;;;11.48;;
70205;SDS011;57593;55.896;37.396;2022-11-20T01:12:50;20.15;;;11.15;;
70205;SDS011;57593;55.896;37.396;2022-11-20T01:13:41;17.13;;;10.60;;
70205;SDS011;57593;55.896;37.396;2022-11-20T01:14:16;19.82;;;10.96;;
70205;SDS011;57593;55.896;37.396;2022-11-20T01:14:48;20.76;;;11.62;;
70205;SDS011;57593;55.896;37.396;2022-11-20T01:15:19;16.55;;;10.40;;
70205;SDS011;57593;55.896;37.396;2022-11-20T01:15:50;17.63;;;11.45;;
70205;SDS011;57593;55.896;37.396;2022-11-20T01:16:54;18.88;;;11.06;;
70205;SDS011;57593;55.896;37.396;2022-11-20T01:17:25;17.50;;;10.65;;
70205;SDS011;57593;55.896;37.396;2022-11-20T01:17:55;17.25;;;11.23;;
70205;SDS011;57593;55.896;37.396;2022-11-20T01:18:26;16.25;;;10.70;;
70205;SDS011;57593;55.896;37.396;2022-11-20T01:18:57;20.60;;;11.13;;
70205;SDS011;57593;55.896;37.396;2022-11-20T01:19:29;16.34;;;10.58;;
70205;SDS011;57593;55.896;37.396;2022-11-20T01:20:00;19.02;;;10.77;;
70205;SDS011;57593;55.896;37.396;2022-11-20T01:20:34;19.98;;;11.45;;
70205;SDS011;57593;55.896;37.396;2022-11-20T01:21:13;16.78;;;11.14;;
70205;SDS011;57593;55.896;37.396;2022-11-20T01:21:47;17.85;;;11.15;;
70205;SDS011;57593;55.896;37.396;2022-11-20T01:22:19;19.14;;;10.68;;
70205;SDS011;57593;55.896;37.396;2022-11-20T01:22:49;15.80;;;10.50;;
70205;SDS011;57593;55.896;37.396;2022-11-20T01:23:20;16.20;;;9.65;;
70205;SDS011;57593;55.896;37.396;2022-11-20T01:23:51;18.58;;;10.75;;
70205;SDS011;57593;55.896;37.396;2022-11-20T01:24:22;17.66;;;10.02;;
70205;SDS011;57593;55.896;37.396;2022-11-20T01:24:53;17.33;;;11.30;;
70205;SDS011;57593;55.896;37.396;2022-11-20T01:25:23;17.23;;;10.88;;
70205;SDS011;57593;55.896;37.396;2022-11-20T01:25:54;16.50;;;10.02;;
70205;SDS011;57593;55.896;37.396;2022-11-20T01:26:28;17.92;;;10.85;;
70205;SDS011;57593;55.896;37.396;2022-11-20T01:27:01;17.26;;;9.66;;
70205;SDS011;57593;55.896;37.396;2022-11-20T01:27:31;16.63;;;9.35;;
70205;SDS011;57593;55.896;37.396;2022-11-20T01:28:02;18.10;;;9.80;;
70205;SDS011;57593;55.896;37.396;2022-11-20T01:28:33;16.83;;;9.88;;
70205;SDS011;57593;55.896;37.396;2022-11-20T01:29:05;16.50;;;10.68;;
70205;SDS011;57593;55.896;37.396;2022-11-20T01:29:36;16.54;;;10.10;;
70205;SDS011;57593;55.896;37.396;2022-11-20T01:30:07;17.98;;;10.40;;
70205;SDS011;57593;55.896;37.396;2022-11-20T01:30:38;17.90;;;10.82;;
70205;SDS011;57593;55.896;37.396;2022-11-20T01:31:16;16.73;;;10.15;;
70205;SDS011;57593;55.896;37.396;2022-11-20T01:32:07;17.70;;;9.86;;
70205;SDS011;57593;55.896;37.396;2022-11-20T01:32:37;17.95;;;9.73;;
70205;SDS011;57593;55.896;37.396;2022-11-20T01:33:08;16.40;;;10.18;;
70205;SDS011;57593;55.896;37.396;2022-11-20T01:33:39;16.92;;;9.65;;
70205;SDS011;57593;55.896;37.396;2022-11-20T01:34:15;15.60;;;10.00;;
70205;SDS011;57593;55.896;37.396;2022-11-20T01:34:47;16.64;;;9.48;;
70205;SDS011;57593;55.896;37.396;2022-11-20T01:35:18;17.63;;;10.32;;
70205;SDS011;57593;55.896;37.396;2022-11-20T01:35:48;16.45;;;9.93;;
70205;SDS011;57593;55.896;37.396;2022-11-20T01:36:20;15.40;;;9.38;;
70205;SDS011;57593;55.896;37.396;2022-11-20T01:36:52;15.64;;;9.16;;
70205;SDS011;57593;55.896;37.396;2022-11-20T01:37:23;16.66;;;10.20;;
70205;SDS011;57593;55.896;37.396;2022-11-20T01:37:54;16.20;;;9.32;;
70205;SDS011;57593;55.896;37.396;2022-11-20T01:38:25;17.95;;;10.32;;
70205;SDS011;57593;55.896;37.396;2022-11-20T01:38:56;17.45;;;10.32;;
70205;SDS011;57593;55.896;37.396;2022-11-20T01:39:28;13.66;;;9.06;;
70205;SDS011;57593;55.896;37.396;2022-11-20T01:39:59;18.42;;;10.07;;
70205;SDS011;57593;55.896;37.396;2022-11-20T01:40:29;16.88;;;9.82;;
70205;SDS011;57593;55.896;37.396;2022-11-20T01:41:00;17.33;;;9.63;;
70205;SDS011;57593;55.896;37.396;2022-11-20T01:41:31;17.48;;;9.85;;
70205;SDS011;57593;55.896;37.396;2022-11-20T01:42:22;15.30;;;9.22;;
70205;SDS011;57593;55.896;37.396;2022-11-20T01:43:13;19.68;;;10.60;;
70205;SDS011;57593;55.896;37.396;2022-11-20T01:44:42;13.43;;;8.35;;
70205;SDS011;57593;55.896;37.396;2022-11-20T01:46:27;13.62;;;8.20;;
70205;SDS011;57593;55.896;37.396;2022-11-20T01:47:01;16.10;;;9.63;;
70205;SDS011;57593;55.896;37.396;2022-11-20T01:47:39;16.28;;;9.08;;
70205;SDS011;57593;55.896;37.396;2022-11-20T01:48:14;14.06;;;8.70;;
70205;SDS011;57593;55.896;37.396;2022-11-20T01:48:48;16.24;;;9.86;;
70205;SDS011;57593;55.896;37.396;2022-11-20T01:49:22;16.52;;;8.98;;
70205;SDS011;57593;55.896;37.396;2022-11-20T01:50:04;12.74;;;8.66;;
70205;SDS011;57593;55.896;37.396;2022-11-20T01:50:41;15.62;;;8.52;;
70205;SDS011;57593;55.896;37.396;2022-11-20T01:51:19;14.88;;;8.98;;
70205;SDS011;57593;55.896;37.396;2022-11-20T01:52:04;13.88;;;8.98;;
70205;SDS011;57593;55.896;37.396;2022-11-20T01:52:54;18.70;;;9.26;;
70205;SDS011;57593;55.896;37.396;2022-11-20T01:53:31;15.24;;;8.70;;
70205;SDS011;57593;55.896;37.396;2022-11-20T01:54:06;15.10;;;8.68;;
70205;SDS011;57593;55.896;37.396;2022-11-20T01:54:43;18.32;;;9.74;;
70205;SDS011;57593;55.896;37.396;2022-11-20T01:55:28;14.98;;;9.44;;
70205;SDS011;57593;55.896;37.396;2022-11-20T01:56:05;18.38;;;9.44;;
70205;SDS011;57593;55.896;37.396;2022-11-20T01:56:40;13.92;;;8.36;;
70205;SDS011;57593;55.896;37.396;2022-11-20T01:57:14;13.90;;;9.08;;
70205;SDS011;57593;55.896;37.396;2022-11-20T01:57:47;14.30;;;8.80;;
70205;SDS011;57593;55.896;37.396;2022-11-20T01:58:20;15.12;;;9.16;;
70205;SDS011;57593;55.896;37.396;2022-11-20T01:58:56;17.92;;;8.90;;
70205;SDS011;57593;55.896;37.396;2022-11-20T01:59:31;14.66;;;9.48;;
70205;SDS011;57593;55.896;37.396;2022-11-20T02:00:08;17.58;;;9.48;;
70205;SDS011;57593;55.896;37.396;2022-11-20T02:00:43;12.70;;;8.86;;
70205;SDS011;57593;55.896;37.396;2022-11-20T02:01:14;14.05;;;8.88;;
70205;SDS011;57593;55.896;37.396;2022-11-20T02:01:45;15.44;;;10.08;;
70205;SDS011;57593;55.896;37.396;2022-11-20T02:02:16;19.08;;;10.02;;
70205;SDS011;57593;55.896;37.396;2022-11-20T02:03:49;14.82;;;9.20;;
70205;SDS011;57593;55.896;37.396;2022-11-20T02:04:20;17.50;;;9.54;;
70205;SDS011;57593;55.896;37.396;2022-11-20T02:04:54;18.40;;;10.20;;
70205;SDS011;57593;55.896;37.396;2022-11-20T02:06:58;16.50;;;9.16;;
70205;SDS011;57593;55.896;37.396;2022-11-20T02:07:31;15.46;;;8.42;;
70205;SDS011;57593;55.896;37.396;2022-11-20T02:08:02;15.65;;;9.65;;
70205;SDS011;57593;55.896;37.396;2022-11-20T02:08:35;16.80;;;9.46;;
70205;SDS011;57593;55.896;37.396;2022-11-20T02:09:06;16.22;;;9.02;;
70205;SDS011;57593;55.896;37.396;2022-11-20T02:09:37;14.73;;;9.30;;
70205;SDS011;57593;55.896;37.396;2022-11-20T02:10:08;15.68;;;9.43;;
70205;SDS011;57593;55.896;37.396;2022-11-20T02:10:38;16.27;;;9.73;;
70205;SDS011;57593;55.896;37.396;2022-11-20T02:11:09;15.52;;;8.95;;
70205;SDS011;57593;55.896;37.396;2022-11-20T02:11:40;15.68;;;9.43;;
70205;SDS011;57593;55.896;37.396;2022-11-20T02:12:10;12.35;;;8.65;;
70205;SDS011;57593;55.896;37.396;2022-11-20T02:13:01;14.15;;;9.38;;
70205;SDS011;57593;55.896;37.396;2022-11-20T02:13:50;15.18;;;8.62;;
70205;SDS011;57593;55.896;37.396;2022-11-20T02:14:21;14.20;;;9.10;;
70205;SDS011;57593;55.896;37.396;2022-11-20T02:14:53;15.78;;;9.44;;
70205;SDS011;57593;55.896;37.396;2022-11-20T02:15:23;14.00;;;9.07;;
70205;SDS011;57593;55.896;37.396;2022-11-20T02:15:54;16.27;;;9.27;;
70205;SDS011;57593;55.896;37.396;2022-11-20T02:16:30;15.48;;;9.26;;
70205;SDS011;57593;55.896;37.396;2022-11-20T02:17:05;15.75;;;9.20;;
70205;SDS011;57593;55.896;37.396;2022-11-20T02:17:36;17.10;;;10.10;;
70205;SDS011;57593;55.896;37.396;2022-11-20T02:18:07;17.60;;;9.95;;
70205;SDS011;57593;55.896;37.396;2022-11-20T02:18:40;18.82;;;10.14;;
70205;SDS011;57593;55.896;37.396;2022-11-20T02:19:32;16.26;;;9.94;;
70205;SDS011;57593;55.896;37.396;2022-11-20T02:20:34;14.58;;;9.56;;
70205;SDS011;57593;55.896;37.396;2022-11-20T02:21:06;15.20;;;9.57;;
70205;SDS011;57593;55.896;37.396;2022-11-20T02:22:02;18.94;;;9.28;;
70205;SDS011;57593;55.896;37.396;2022-11-20T02:22:59;16.22;;;9.00;;
70205;SDS011;57593;55.896;37.396;2022-11-20T02:23:39;17.34;;;9.12;;
70205;SDS011;57593;55.896;37.396;2022-11-20T02:24:25;16.10;;;9.74;;
70205;SDS011;57593;55.896;37.396;2022-11-20T02:24:56;13.65;;;9.15;;
70205;SDS011;57593;55.896;37.396;2022-11-20T02:25:31;19.92;;;10.30;;
70205;SDS011;57593;55.896;37.396;2022-11-20T02:26:05;17.52;;;9.44;;
70205;SDS011;57593;55.896;37.396;2022-11-20T02:26:54;15.84;;;9.86;;
70205;SDS011;57593;55.896;37.396;2022-11-20T02:27:29;16.66;;;9.82;;
70205;SDS011;57593;55.896;37.396;2022-11-20T02:28:00;18.95;;;9.95;;
70205;SDS011;57593;55.896;37.396;2022-11-20T02:28:31;16.38;;;9.44;;
70205;SDS011;57593;55.896;37.396;2022-11-20T02:29:02;17.32;;;10.44;;
70205;SDS011;57593;55.896;37.396;2022-11-20T02:30:08;14.88;;;10.38;;
70205;SDS011;57593;55.896;37.396;2022-11-20T02:30:41;18.10;;;10.38;;
70205;SDS011;57593;55.896;37.396;2022-11-20T02:31:11;18.15;;;9.57;;
70205;SDS011;57593;55.896;37.396;2022-11-20T02:31:42;20.20;;;10.02;;
70205;SDS011;57593;55.896;37.396;2022-11-20T02:32:17;15.28;;;9.84;;
70205;SDS011;57593;55.896;37.396;2022-11-20T02:32:52;14.46;;;10.28;;
70205;SDS011;57593;55.896;37.396;2022-11-20T02:33:23;19.25;;;10.55;;
70205;SDS011;57593;55.896;37.396;2022-11-20T02:33:56;16.63;;;10.35;;
70205;SDS011;57593;55.896;37.396;2022-11-20T02:34:28;16.66;;;9.80;;
70205;SDS011;57593;55.896;37.396;2022-11-20T02:35:06;15.00;;;9.62;;
70205;SDS011;57593;55.896;37.396;2022-11-20T02:35:44;17.42;;;10.16;;
70205;SDS011;57593;55.896;37.396;2022-11-20T02:36:16;16.22;;;9.00;;
70205;SDS011;57593;55.896;37.396;2022-11-20T02:36:47;18.40;;;10.30;;
70205;SDS011;57593;55.896;37.396;2022-11-20T02:37:20;17.74;;;10.50;;
70205;SDS011;57593;55.896;37.396;2022-11-20T02:37:53;15.64;;;9.66;;
70205;SDS011;57593;55.896;37.396;2022-11-20T02:38:25;20.34;;;10.00;;
70205;SDS011;57593;55.896;37.396;2022-11-20T02:38:55;15.60;;;9.60;;
70205;SDS011;57593;55.896;37.396;2022-11-20T02:39:26;17.38;;;9.55;;
70205;SDS011;57593;55.896;37.396;2022-11-20T02:39:58;17.60;;;10.14;;
70205;SDS011;57593;55.896;37.396;2022-11-20T02:40:29;15.55;;;9.50;;
70205;SDS011;57593;55.896;37.396;2022-11-20T02:40:59;17.65;;;8.98;;
70205;SDS011;57593;55.896;37.396;2022-11-20T02:41:34;18.13;;;9.60;;
70205;SDS011;57593;55.896;37.396;2022-11-20T02:42:07;17.32;;;9.64;;
70205;SDS011;57593;55.896;37.396;2022-11-20T02:42:37;17.42;;;9.77;;
70205;SDS011;57593;55.896;37.396;2022-11-20T02:43:08;16.23;;;10.23;;
70205;SDS011;57593;55.896;37.396;2022-11-20T02:43:39;16.96;;;10.28;;
70205;SDS011;57593;55.896;37.396;2022-11-20T02:44:10;15.27;;;9.20;;
70205;SDS011;57593;55.896;37.396;2022-11-20T02:44:41;17.33;;;10.02;;
70205;SDS011;57593;55.896;37.396;2022-11-20T02:45:11;19.08;;;10.00;;
70205;SDS011;57593;55.896;37.396;2022-11-20T02:45:42;17.42;;;10.15;;
70205;SDS011;57593;55.896;37.396;2022-11-20T02:46:13;15.93;;;9.80;;
70205;SDS011;57593;55.896;37.396;2022-11-20T02:46:44;16.02;;;9.55;;
70205;SDS011;57593;55.896;37.396;2022-11-20T02:47:14;18.58;;;10.70;;
70205;SDS011;57593;55.896;37.396;2022-11-20T02:47:45;15.68;;;8.73;;
70205;SDS011;57593;55.896;37.396;2022-11-20T02:48:16;15.82;;;8.88;;
70205;SDS011;57593;55.896;37.396;2022-11-20T02:48:46;15.27;;;9.38;;
70205;SDS011;57593;55.896;37.396;2022-11-20T02:49:17;17.88;;;9.90;;
70205;SDS011;57593;55.896;37.396;2022-11-20T02:49:48;14.85;;;9.73;;
70205;SDS011;57593;55.896;37.396;2022-11-20T02:50:18;16.55;;;9.18;;
70205;SDS011;57593;55.896;37.396;2022-11-20T02:50:50;18.46;;;10.20;;
70205;SDS011;57593;55.896;37.396;2022-11-20T02:51:20;16.50;;;9.68;;
70205;SDS011;57593;55.896;37.396;2022-11-20T02:51:51;16.02;;;9.82;;
70205;SDS011;57593;55.896;37.396;2022-11-20T02:52:22;15.50;;;9.07;;
70205;SDS011;57593;55.896;37.396;2022-11-20T02:52:53;14.46;;;9.22;;
70205;SDS011;57593;55.896;37.396;2022-11-20T02:53:24;17.92;;;10.27;;
70205;SDS011;57593;55.896;37.396;2022-11-20T02:53:54;16.85;;;9.27;;
70205;SDS011;57593;55.896;37.396;2022-11-20T02:54:25;16.88;;;10.02;;
70205;SDS011;57593;55.896;37.396;2022-11-20T02:54:56;16.58;;;9.95;;
70205;SDS011;57593;55.896;37.396;2022-11-20T02:55:26;16.05;;;9.68;;
70205;SDS011;57593;55.896;37.396;2022-11-20T02:55:57;16.30;;;9.95;;
70205;SDS011;57593;55.896;37.396;2022-11-20T02:56:28;16.42;;;9.80;;
70205;SDS011;57593;55.896;37.396;2022-11-20T02:56:59;15.72;;;9.84;;
70205;SDS011;57593;55.896;37.396;2022-11-20T02:57:29;18.10;;;9.20;;
70205;SDS011;57593;55.896;37.396;2022-11-20T02:58:00;17.48;;;9.85;;
70205;SDS011;57593;55.896;37.396;2022-11-20T02:58:31;17.25;;;9.57;;
70205;SDS011;57593;55.896;37.396;2022-11-20T02:59:01;15.52;;;9.05;;
70205;SDS011;57593;55.896;37.396;2022-11-20T02:59:32;15.40;;;8.88;;
70205;SDS011;57593;55.896;37.396;2022-11-20T03:00:03;13.45;;;8.43;;
70205;SDS011;57593;55.896;37.396;2022-11-20T03:00:34;15.93;;;8.98;;
70205;SDS011;57593;55.896;37.396;2022-11-20T03:01:05;19.13;;;10.13;;
70205;SDS011;57593;55.896;37.396;2022-11-20T03:01:36;15.02;;;9.10;;
70205;SDS011;57593;55.896;37.396;2022-11-20T03:02:06;17.67;;;9.27;;
70205;SDS011;57593;55.896;37.396;2022-11-20T03:02:37;17.73;;;8.82;;
70205;SDS011;57593;55.896;37.396;2022-11-20T03:03:08;15.13;;;8.98;;
70205;SDS011;57593;55.896;37.396;2022-11-20T03:03:38;17.23;;;9.43;;
70205;SDS011;57593;55.896;37.396;2022-11-20T03:04:09;16.95;;;9.80;;
70205;SDS011;57593;55.896;37.396;2022-11-20T03:04:40;15.38;;;9.43;;
70205;SDS011;57593;55.896;37.396;2022-11-20T03:05:10;15.98;;;8.80;;
70205;SDS011;57593;55.896;37.396;2022-11-20T03:05:41;14.27;;;9.32;;
70205;SDS011;57593;55.896;37.396;2022-11-20T03:06:11;14.15;;;8.38;;
70205;SDS011;57593;55.896;37.396;2022-11-20T03:06:42;14.10;;;8.57;;
70205;SDS011;57593;55.896;37.396;2022-11-20T03:07:13;15.30;;;9.10;;
70205;SDS011;57593;55.896;37.396;2022-11-20T03:07:43;15.95;;;9.77;;
70205;SDS011;57593;55.896;37.396;2022-11-20T03:08:14;19.60;;;9.05;;
70205;SDS011;57593;55.896;37.396;2022-11-20T03:08:45;14.90;;;9.38;;
70205;SDS011;57593;55.896;37.396;2022-11-20T03:09:15;14.40;;;9.10;;
70205;SDS011;57593;55.896;37.396;2022-11-20T03:09:46;14.43;;;9.05;;
70205;SDS011;57593;55.896;37.396;2022-11-20T03:10:17;15.70;;;9.55;;
70205;SDS011;57593;55.896;37.396;2022-11-20T03:10:47;16.60;;;9.35;;
70205;SDS011;57593;55.896;37.396;2022-11-20T03:11:18;14.32;;;8.88;;
70205;SDS011;57593;55.896;37.396;2022-11-20T03:11:48;15.90;;;8.65;;
70205;SDS011;57593;55.896;37.396;2022-11-20T03:12:19;14.93;;;8.80;;
70205;SDS011;57593;55.896;37.396;2022-11-20T03:12:53;14.88;;;9.23;;
70205;SDS011;57593;55.896;37.396;2022-11-20T03:13:25;14.50;;;9.08;;
70205;SDS011;57593;55.896;37.396;2022-11-20T03:13:56;15.23;;;8.27;;
70205;SDS011;57593;55.896;37.396;2022-11-20T03:14:26;13.85;;;9.43;;